Time;durP1;ratioP1;P1;durP2;ratioP2;P2;SDS_P1;SDS_P2;PMS_P1;PMS_P2;Temp;Humidity;BMP_temperature;BMP_pressure;BME280_temperature;BME280_humidity;BME280_pressure;Samples;Min_cycle;Max_cycle;Signal;HPM_P1;HPM_P2
2023/12/17 00:02:15;;;;;;;0.00;0.00;;;;;;;-145.06;100.00;54483.78;10347076;28;20291;-68
2023/12/17 00:07:16;;;;;;;0.10;0.10;;;;;;;-145.06;100.00;54481.75;10347504;28;20036;-69
2023/12/17 00:12:16;;;;;;;0.10;0.10;;;;;;;-145.06;100.00;54465.53;10349616;28;20084;-68
2023/12/17 00:17:16;;;;;;;0.10;0.10;;;;;;;-145.06;100.00;54447.31;10348391;28;20634;-68
2023/12/17 00:22:17;;;;;;;0.00;0.00;;;;;;;-145.06;100.00;54457.44;10348569;28;20387;-68
2023/12/17 00:27:17;;;;;;;0.10;0.10;;;;;;;-145.06;100.00;54447.31;10348027;28;20679;-68
2023/12/17 00:32:17;;;;;;;0.10;0.10;;;;;;;-145.06;100.00;54439.22;10347738;28;20281;-68
2023/12/17 00:37:18;;;;;;;0.00;0.00;;;;;;;-145.06;100.00;54447.31;10347221;28;20083;-69
2023/12/17 00:42:18;;;;;;;0.10;0.10;;;;;;;-145.06;100.00;54471.63;10347622;28;20383;-68
2023/12/17 00:47:18;;;;;;;0.00;0.00;;;;;;;-145.06;100.00;54443.28;10346842;28;20034;-68
2023/12/17 00:52:22;;;;;;;0.00;0.00;;;;;;;-145.06;100.00;54471.63;10346865;28;20034;-68
2023/12/17 00:57:22;;;;;;;0.10;0.10;;;;;;;-145.06;100.00;54463.53;10348186;28;20690;-68
2023/12/17 01:02:22;;;;;;;0.10;0.10;;;;;;;-145.06;100.00;54396.69;10347643;28;20014;-68
2023/12/17 01:07:22;;;;;;;0.00;0.00;;;;;;;-145.06;100.00;54431.13;10346529;28;20269;-68
2023/12/17 01:12:23;;;;;;;0.10;0.10;;;;;;;-145.06;100.00;54404.78;10346258;28;20026;-68
2023/12/17 01:17:23;;;;;;;0.00;0.00;;;;;;;-145.06;100.00;54418.97;10345941;28;20026;-69
2023/12/17 01:22:23;;;;;;;0.05;0.05;;;;;;;-145.06;100.00;54416.94;10347934;28;20077;-68
2023/12/17 01:27:24;;;;;;;0.00;0.00;;;;;;;-145.06;100.00;54439.22;10348450;28;20222;-69
2023/12/17 01:32:24;;;;;;;0.10;0.10;;;;;;;-145.06;100.00;54410.84;10346919;28;20022;-69
2023/12/17 01:37:24;;;;;;;0.10;0.10;;;;;;;-145.06;100.00;54416.94;10346371;28;20022;-68
2023/12/17 01:42:24;;;;;;;0.10;0.10;;;;;;;-145.06;100.00;54406.81;10347268;28;20030;-69
2023/12/17 01:47:25;;;;;;;0.10;0.10;;;;;;;-145.06;100.00;54414.91;10343344;28;20064;-68
2023/12/17 01:52:25;;;;;;;0.10;0.10;;;;;;;-145.06;100.00;54451.38;10346814;28;20035;-68
2023/12/17 01:57:25;;;;;;;0.10;0.10;;;;;;;-145.06;100.00;54394.66;10344685;28;20046;-69
2023/12/17 02:02:26;;;;;;;0.10;0.10;;;;;;;-145.06;100.00;54427.06;10345332;28;20018;-69
2023/12/17 02:07:26;;;;;;;0.10;0.10;;;;;;;-145.06;100.00;54416.94;10345597;28;20048;-69
2023/12/17 02:12:28;;;;;;;0.00;0.00;;;;;;;-145.06;100.00;54425.03;10343928;28;20277;-68
2023/12/17 02:17:30;;;;;;;0.00;0.00;;;;;;;-145.06;100.00;54390.59;10344073;28;20391;-68
2023/12/17 02:22:33;;;;;;;0.10;0.10;;;;;;;-145.06;100.00;54406.81;10345534;28;20025;-68
2023/12/17 02:27:33;;;;;;;0.00;0.00;;;;;;;-145.06;100.00;54455.41;10343142;28;20399;-68
2023/12/17 02:32:33;;;;;;;0.03;0.03;;;;;;;-145.06;100.00;54431.13;10348961;28;20019;-68
2023/12/17 02:37:33;;;;;;;0.10;0.10;;;;;;;-145.06;100.00;54404.78;10347180;28;20029;-68
2023/12/17 02:42:34;;;;;;;0.00;0.00;;;;;;;-145.06;100.00;54427.06;10336947;28;20084;-68
2023/12/17 02:47:34;;;;;;;0.10;0.10;;;;;;;-145.06;100.00;54418.97;10342324;28;20057;-68
2023/12/17 02:52:34;;;;;;;0.10;0.10;;;;;;;-145.06;100.00;54421.00;10336622;28;20040;-68
2023/12/17 02:57:35;;;;;;;0.10;0.10;;;;;;;-145.06;100.00;54425.03;10338363;28;20268;-68
2023/12/17 03:02:35;;;;;;;0.10;0.10;;;;;;;-145.06;100.00;54410.84;10336471;28;20032;-68
2023/12/17 03:07:35;;;;;;;0.00;0.00;;;;;;;-145.06;100.00;54406.81;10336354;28;20026;-68
2023/12/17 03:12:36;;;;;;;0.10;0.10;;;;;;;-145.06;100.00;54396.69;10334829;28;20376;-68
2023/12/17 03:17:37;;;;;;;0.10;0.10;;;;;;;-145.06;100.00;54408.84;10332636;28;20026;-68
2023/12/17 03:22:37;;;;;;;0.00;0.00;;;;;;;-145.06;100.00;54423.00;10330627;28;20024;-68
2023/12/17 03:27:37;;;;;;;0.00;0.00;;;;;;;-145.06;100.00;54429.09;10333481;28;20030;-68
2023/12/17 03:32:37;;;;;;;0.00;0.00;;;;;;;-145.06;100.00;54418.97;10336378;28;20053;-68
2023/12/17 03:37:38;;;;;;;0.10;0.10;;;;;;;-145.06;100.00;54429.09;10331321;28;20108;-68
2023/12/17 03:42:38;;;;;;;0.10;0.10;;;;;;;-145.06;100.00;54402.75;10337966;28;20075;-68
2023/12/17 03:47:47;;;;;;;0.10;0.10;;;;;;;-145.06;100.00;54414.91;10334599;28;20502;-68
2023/12/17 03:52:48;;;;;;;0.10;0.10;;;;;;;-145.06;100.00;54408.84;10334538;28;20546;-68
2023/12/17 03:57:48;;;;;;;0.10;0.10;;;;;;;-145.06;100.00;54423.00;10337439;28;20080;-68
2023/12/17 04:02:49;;;;;;;0.10;0.10;;;;;;;-145.06;100.00;54402.75;10331001;28;20029;-68
2023/12/17 04:07:49;;;;;;;0.10;0.10;;;;;;;-145.06;100.00;54410.84;10329743;28;20046;-68
2023/12/17 04:12:49;;;;;;;0.00;0.00;;;;;;;-145.06;100.00;54423.00;10332881;28;20390;-68
2023/12/17 04:17:50;;;;;;;0.10;0.10;;;;;;;-145.06;100.00;54402.75;10335937;28;20018;-68
2023/12/17 04:22:50;;;;;;;0.10;0.10;;;;;;;-145.06;100.00;54402.75;10336265;28;20022;-68
2023/12/17 04:27:50;;;;;;;0.00;0.00;;;;;;;-145.06;100.00;54410.84;10334532;28;20022;-68
2023/12/17 04:32:51;;;;;;;0.10;0.10;;;;;;;-145.06;100.00;54439.22;10332149;28;20018;-68
2023/12/17 04:37:51;;;;;;;0.10;0.10;;;;;;;-145.06;100.00;54394.66;10335619;28;20033;-68
2023/12/17 04:42:51;;;;;;;0.00;0.00;;;;;;;-145.06;100.00;54394.66;10343180;28;20010;-68
2023/12/17 04:47:52;;;;;;;0.10;0.10;;;;;;;-145.06;100.00;54418.97;10344003;28;20491;-68
2023/12/17 04:52:52;;;;;;;0.10;0.10;;;;;;;-145.06;100.00;54443.28;10341491;28;20019;-68
2023/12/17 04:57:52;;;;;;;0.10;0.10;;;;;;;-145.06;100.00;54382.50;10342889;28;20757;-68
2023/12/17 05:02:52;;;;;;;0.10;0.10;;;;;;;-145.06;100.00;54382.50;10338872;28;20027;-68
2023/12/17 05:07:53;;;;;;;0.10;0.10;;;;;;;-145.06;100.00;54406.81;10344425;28;20431;-68
2023/12/17 05:12:56;;;;;;;0.10;0.10;;;;;;;-145.06;100.00;54421.00;10340932;28;20026;-68
2023/12/17 05:17:56;;;;;;;0.10;0.10;;;;;;;-145.06;100.00;54412.88;10338200;28;20075;-68
2023/12/17 05:22:56;;;;;;;0.10;0.10;;;;;;;-145.06;100.00;54412.88;10338434;28;20027;-68
2023/12/17 05:27:57;;;;;;;0.10;0.10;;;;;;;-145.06;100.00;54423.00;10338040;28;20265;-68
2023/12/17 05:32:57;;;;;;;0.10;0.10;;;;;;;-145.06;100.00;54408.84;10338157;28;20023;-68
2023/12/17 05:37:57;;;;;;;0.10;0.10;;;;;;;-145.06;100.00;54429.09;10339134;28;20053;-68
2023/12/17 05:42:58;;;;;;;0.10;0.10;;;;;;;-145.06;100.00;54398.72;10336609;28;20011;-68
2023/12/17 05:47:58;;;;;;;0.10;0.10;;;;;;;-145.06;100.00;54421.00;10337129;28;20038;-68
2023/12/17 05:52:58;;;;;;;0.00;0.00;;;;;;;-145.06;100.00;54423.00;10337714;28;20030;-68
2023/12/17 05:57:58;;;;;;;0.00;0.00;;;;;;;-145.06;100.00;54425.03;10337128;28;20265;-68
2023/12/17 06:02:59;;;;;;;0.10;0.10;;;;;;;-145.06;100.00;54406.81;10335971;28;20032;-68
2023/12/17 06:07:59;;;;;;;0.03;0.03;;;;;;;-145.06;100.00;54423.00;10333159;28;20084;-68
2023/12/17 06:12:59;;;;;;;0.00;0.00;;;;;;;-145.06;100.00;54408.84;10338111;28;20023;-68
2023/12/17 06:18:00;;;;;;;0.00;0.00;;;;;;;-145.06;100.00;54408.84;10337966;28;20022;-68
2023/12/17 06:23:00;;;;;;;0.10;0.10;;;;;;;-145.06;100.00;54439.22;10337697;28;20022;-68
2023/12/17 06:28:01;;;;;;;0.10;0.10;;;;;;;-145.06;100.00;54429.09;10339067;28;20022;-68
2023/12/17 06:33:01;;;;;;;0.10;0.10;;;;;;;-145.06;100.00;54418.97;10339776;28;20300;-68
2023/12/17 06:38:01;;;;;;;0.10;0.10;;;;;;;-145.06;100.00;54427.06;10331573;28;20045;-68
2023/12/17 06:43:02;;;;;;;0.00;0.00;;;;;;;-145.06;100.00;54408.84;10332745;28;20061;-68
2023/12/17 06:48:02;;;;;;;0.10;0.10;;;;;;;-145.06;100.00;54433.13;10331863;28;20026;-68
2023/12/17 06:53:03;;;;;;;0.10;0.10;;;;;;;-145.06;100.00;54406.81;10330760;28;20030;-68
2023/12/17 06:58:03;;;;;;;0.10;0.10;;;;;;;-145.06;100.00;54400.72;10315563;28;20018;-68
2023/12/17 07:03:03;;;;;;;0.10;0.10;;;;;;;-145.06;100.00;54427.06;10331999;28;20029;-68
2023/12/17 07:08:04;;;;;;;0.10;0.10;;;;;;;-145.06;100.00;54414.91;10328544;28;20364;-68
2023/12/17 07:13:04;;;;;;;0.10;0.10;;;;;;;-145.06;100.00;54425.03;10333498;28;20387;-68
2023/12/17 07:18:05;;;;;;;0.00;0.00;;;;;;;-145.06;100.00;54418.97;10331722;28;20084;-68
2023/12/17 07:23:05;;;;;;;0.00;0.00;;;;;;;-145.06;100.00;54400.72;10332744;28;20010;-68
2023/12/17 07:28:05;;;;;;;0.10;0.10;;;;;;;-145.06;100.00;54418.97;10330852;28;20053;-68
2023/12/17 07:33:06;;;;;;;0.10;0.10;;;;;;;-145.06;100.00;54441.25;10333899;28;20027;-68
2023/12/17 07:38:06;;;;;;;0.00;0.00;;;;;;;-145.06;100.00;54404.78;10332216;28;20033;-68
2023/12/17 07:43:07;;;;;;;0.00;0.00;;;;;;;-145.06;100.00;54427.06;10331712;28;20026;-68
2023/12/17 07:48:07;;;;;;;0.10;0.10;;;;;;;-145.06;100.00;54390.59;10331475;28;20038;-68
2023/12/17 07:53:07;;;;;;;0.10;0.10;;;;;;;-145.06;100.00;54406.81;10333402;28;20438;-68
2023/12/17 07:58:08;;;;;;;0.10;0.10;;;;;;;-145.06;100.00;54390.59;10333237;28;20410;-67
2023/12/17 08:03:08;;;;;;;0.00;0.00;;;;;;;-145.06;100.00;54433.13;10335122;28;20755;-68
2023/12/17 08:08:08;;;;;;;0.00;0.00;;;;;;;-145.06;100.00;54429.09;10333762;28;20030;-68
2023/12/17 08:13:09;;;;;;;0.10;0.10;;;;;;;-145.06;100.00;54394.66;10334211;28;20505;-68
2023/12/17 08:18:09;;;;;;;0.00;0.00;;;;;;;-145.06;100.00;54416.94;10340179;28;20048;-68
2023/12/17 08:23:09;;;;;;;0.10;0.10;;;;;;;-145.06;100.00;54435.16;10342806;28;20742;-68
2023/12/17 08:28:09;;;;;;;0.10;0.10;;;;;;;-145.06;100.00;54429.09;10342208;28;20027;-68
2023/12/17 08:33:10;;;;;;;0.00;0.00;;;;;;;-145.06;100.00;54408.84;10339563;28;20157;-68
2023/12/17 08:38:10;;;;;;;0.10;0.10;;;;;;;-145.06;100.00;54412.88;10339865;28;20022;-68
2023/12/17 08:43:11;;;;;;;0.10;0.10;;;;;;;-145.06;100.00;54398.72;10342714;28;20260;-68
2023/12/17 08:48:11;;;;;;;0.10;0.10;;;;;;;-145.06;100.00;54406.81;10341596;28;20079;-68
2023/12/17 08:53:12;;;;;;;0.10;0.10;;;;;;;-145.06;100.00;54418.97;10343420;28;20076;-67
2023/12/17 08:58:12;;;;;;;0.10;0.10;;;;;;;-145.06;100.00;54439.22;10344176;28;20026;-68
2023/12/17 09:03:12;;;;;;;0.10;0.10;;;;;;;-145.06;100.00;54406.81;10343872;28;20026;-68
2023/12/17 09:08:13;;;;;;;0.10;0.10;;;;;;;-145.06;100.00;54414.91;10345154;28;20041;-67
2023/12/17 09:13:13;;;;;;;0.10;0.10;;;;;;;-145.06;100.00;54400.72;10341192;28;20039;-67
2023/12/17 09:18:13;;;;;;;0.00;0.00;;;;;;;-145.06;100.00;54398.72;10343219;28;20029;-67
2023/12/17 09:23:14;;;;;;;0.10;0.10;;;;;;;-145.06;100.00;54408.84;10343406;28;20026;-67
2023/12/17 09:28:14;;;;;;;0.10;0.10;;;;;;;-145.06;100.00;54416.94;10343053;28;20030;-67
2023/12/17 09:33:14;;;;;;;0.10;0.10;;;;;;;-145.06;100.00;54416.94;10342872;28;21142;-67
2023/12/17 09:38:16;;;;;;;0.10;0.10;;;;;;;-145.06;100.00;54423.00;10342134;28;20356;-67
2023/12/17 09:43:17;;;;;;;0.00;0.00;;;;;;;-145.06;100.00;54414.91;10339535;28;20257;-68
2023/12/17 09:48:20;;;;;;;0.10;0.10;;;;;;;-145.06;100.00;54423.00;10343437;28;20049;-68
2023/12/17 09:53:22;;;;;;;0.10;0.10;;;;;;;-145.06;100.00;54410.84;10339861;28;20030;-68
2023/12/17 09:58:24;;;;;;;0.10;0.10;;;;;;;-145.06;100.00;54390.59;10341916;28;20022;-68
2023/12/17 10:03:25;;;;;;;0.10;0.10;;;;;;;-145.06;100.00;54418.97;10344970;28;20061;-67
2023/12/17 10:08:25;;;;;;;0.00;0.00;;;;;;;-145.06;100.00;54414.91;10343133;28;20105;-68
2023/12/17 10:13:26;;;;;;;0.00;0.00;;;;;;;-145.06;100.00;54441.25;10342527;28;20049;-68
2023/12/17 10:18:26;;;;;;;0.10;0.10;;;;;;;-145.06;100.00;54431.13;10343968;28;20027;-68
2023/12/17 10:23:27;;;;;;;0.00;0.00;;;;;;;-145.06;100.00;54398.72;10338791;28;20030;-67
2023/12/17 10:28:27;;;;;;;0.10;0.10;;;;;;;-145.06;100.00;54390.59;10343989;28;20068;-68
2023/12/17 10:33:35;;;;;;;0.00;0.00;;;;;;;-145.06;100.00;54447.31;10340547;28;20022;-68
2023/12/17 10:38:35;;;;;;;0.10;0.10;;;;;;;-145.06;100.00;54431.13;10342636;28;20026;-67
2023/12/17 10:43:37;;;;;;;0.10;0.10;;;;;;;-145.06;100.00;54390.59;10343140;28;20030;-68
2023/12/17 10:48:38;;;;;;;0.10;0.10;;;;;;;-145.06;100.00;54398.72;10373039;22;20037;-69
2023/12/17 10:53:38;;;;;;;0.10;0.10;;;;;;;-145.06;100.00;54418.97;10396659;28;20033;-70
2023/12/17 10:58:39;;;;;;;0.10;0.10;;;;;;;-145.06;100.00;54416.94;10394830;28;20033;-70
2023/12/17 11:03:40;;;;;;;0.00;0.00;;;;;;;-145.06;100.00;54435.16;10393497;28;20032;-69
2023/12/17 11:08:41;;;;;;;0.00;0.00;;;;;;;-145.06;100.00;54445.28;10377893;28;20022;-69
2023/12/17 11:13:41;;;;;;;0.10;0.10;;;;;;;-145.06;100.00;54423.00;10379207;28;20069;-69
2023/12/17 11:18:42;;;;;;;0.10;0.10;;;;;;;-145.06;100.00;54465.53;10395727;28;20497;-71
2023/12/17 11:23:46;;;;;;;0.10;0.10;;;;;;;-145.06;100.00;54421.00;10395606;28;20084;-71
2023/12/17 11:28:48;;;;;;;0.00;0.00;;;;;;;-145.06;100.00;54423.00;10392517;28;20072;-71
2023/12/17 11:33:49;;;;;;;0.10;0.10;;;;;;;-145.06;100.00;54402.75;10393063;28;20049;-71
2023/12/17 11:38:52;;;;;;;0.10;0.10;;;;;;;-145.06;100.00;54423.00;10393155;28;20441;-71
2023/12/17 11:43:52;;;;;;;0.10;0.10;;;;;;;-145.06;100.00;54447.31;10393597;28;20083;-69
2023/12/17 11:48:52;;;;;;;0.00;0.00;;;;;;;-145.06;100.00;54441.25;10393615;28;20055;-69
2023/12/17 11:53:53;;;;;;;0.10;0.10;;;;;;;-145.06;100.00;54427.06;10393788;28;20412;-69
2023/12/17 11:58:53;;;;;;;0.00;0.00;;;;;;;-145.06;100.00;54398.72;10394345;28;20394;-69
2023/12/17 12:03:56;;;;;;;0.10;0.10;;;;;;;-145.06;100.00;54439.22;10376872;28;20010;-69
2023/12/17 12:08:59;;;;;;;0.10;0.10;;;;;;;-145.06;100.00;54431.13;10390797;28;20390;-69
2023/12/17 12:13:59;;;;;;;0.10;0.10;;;;;;;-145.06;100.00;54414.91;10392129;28;20026;-69
2023/12/17 12:19:02;;;;;;;0.00;0.00;;;;;;;-145.06;100.00;54410.84;10390577;28;20540;-69
2023/12/17 12:24:09;;;;;;;0.00;0.00;;;;;;;-145.06;100.00;54433.13;10393914;28;20018;-69
2023/12/17 12:29:09;;;;;;;0.00;0.00;;;;;;;-145.06;100.00;54412.88;10393433;28;20100;-69
2023/12/17 12:34:10;;;;;;;0.05;0.05;;;;;;;-145.06;100.00;54408.84;10375970;28;20022;-69
2023/12/17 12:39:12;;;;;;;0.10;0.10;;;;;;;-145.06;100.00;54427.06;10394229;28;20029;-69
2023/12/17 12:44:14;;;;;;;0.10;0.10;;;;;;;-145.06;100.00;54408.84;10374151;28;20157;-69
2023/12/17 12:49:14;;;;;;;0.10;0.10;;;;;;;-145.06;100.00;54429.09;10390435;28;20517;-69
2023/12/17 12:54:14;;;;;;;0.10;0.10;;;;;;;-145.06;100.00;54429.09;10375147;28;20022;-69
2023/12/17 12:59:15;;;;;;;0.10;0.10;;;;;;;-145.06;100.00;54425.03;10390504;28;20042;-69
2023/12/17 13:04:15;;;;;;;0.10;0.10;;;;;;;-145.06;100.00;54425.03;10398109;28;20017;-70
2023/12/17 13:09:15;;;;;;;0.10;0.10;;;;;;;-145.06;100.00;54457.44;10378812;28;20072;-70
2023/12/17 13:14:17;;;;;;;0.10;0.10;;;;;;;-145.06;100.00;54449.34;10397984;28;20068;-70
2023/12/17 13:19:18;;;;;;;0.00;0.00;;;;;;;-145.06;100.00;54455.41;10381923;28;20470;-70
2023/12/17 13:24:22;;;;;;;0.10;0.10;;;;;;;-145.06;100.00;54455.41;10393940;28;20100;-70
2023/12/17 13:29:22;;;;;;;0.15;0.10;;;;;;;-145.06;100.00;54439.22;10395257;28;20049;-70
2023/12/17 13:34:22;;;;;;;0.00;0.00;;;;;;;-145.06;100.00;54437.19;10379549;28;20029;-70
2023/12/17 13:39:24;;;;;;;0.10;0.10;;;;;;;-145.06;100.00;54467.56;10377333;28;20037;-70
2023/12/17 13:44:24;;;;;;;0.10;0.10;;;;;;;-145.06;100.00;54481.75;10398491;28;20118;-70
2023/12/17 13:49:25;;;;;;;0.10;0.10;;;;;;;-145.06;100.00;54451.38;10378448;28;20037;-70
2023/12/17 13:54:25;;;;;;;0.10;0.10;;;;;;;-145.06;100.00;54447.31;10378541;28;20276;-70
2023/12/17 13:59:26;;;;;;;0.10;0.10;;;;;;;-145.06;100.00;54429.09;10396829;28;20139;-70
2023/12/17 14:04:27;;;;;;;0.10;0.10;;;;;;;-145.06;100.00;54487.81;10395597;28;20021;-70
2023/12/17 14:09:27;;;;;;;0.00;0.00;;;;;;;-145.06;100.00;54495.94;10389754;28;20047;-70
2023/12/17 14:14:30;;;;;;;0.10;0.10;;;;;;;-145.06;100.00;54467.56;10378441;28;20037;-70
2023/12/17 14:19:34;;;;;;;0.10;0.10;;;;;;;-145.06;100.00;54483.78;10394253;28;20086;-69
2023/12/17 14:24:34;;;;;;;;;;;;;;;-145.06;100.00;54475.66;10393426;28;20025;-70
2023/12/17 14:29:36;;;;;;;0.10;0.10;;;;;;;-145.06;100.00;54473.66;10381773;28;20340;-69
2023/12/17 14:34:37;;;;;;;0.10;0.10;;;;;;;-145.06;100.00;54489.84;10393325;28;20017;-69
2023/12/17 14:39:39;;;;;;;0.00;0.00;;;;;;;-145.06;100.00;54493.91;10394809;28;20021;-70
2023/12/17 14:44:39;;;;;;;0.10;0.10;;;;;;;-145.06;100.00;54506.06;10380477;28;20135;-69
2023/12/17 14:49:40;;;;;;;0.10;0.10;;;;;;;-145.06;100.00;54520.22;10375660;28;20147;-69
2023/12/17 14:54:41;;;;;;;0.10;0.10;;;;;;;-145.06;100.00;54524.28;10390961;28;20096;-69
2023/12/17 14:59:41;;;;;;;0.10;0.10;;;;;;;-145.06;100.00;54491.88;10389694;28;20119;-70
2023/12/17 15:04:42;;;;;;;0.10;0.10;;;;;;;-145.06;100.00;54514.16;10391670;28;20026;-69
2023/12/17 15:09:43;;;;;;;0.10;0.10;;;;;;;-145.06;100.00;54487.81;10391276;28;20018;-70
2023/12/17 15:14:43;;;;;;;0.10;0.10;;;;;;;-145.06;100.00;54516.19;10371315;28;20021;-69
2023/12/17 15:19:47;;;;;;;0.00;0.00;;;;;;;-145.06;100.00;54491.88;10376227;28;20026;-69
2023/12/17 15:24:48;;;;;;;0.10;0.10;;;;;;;-145.06;100.00;54516.19;10377244;28;20053;-69
2023/12/17 15:29:48;;;;;;;0.10;0.10;;;;;;;-145.06;100.00;54495.94;10388900;28;20025;-70
2023/12/17 15:34:49;;;;;;;0.00;0.00;;;;;;;-145.06;100.00;54502.00;10390150;28;20029;-69
2023/12/17 15:39:49;;;;;;;0.10;0.10;;;;;;;-145.06;100.00;54520.22;10390236;28;20080;-69
2023/12/17 15:44:49;;;;;;;0.08;0.08;;;;;;;-145.06;100.00;54540.50;10388144;28;20040;-70
2023/12/17 15:49:50;;;;;;;0.10;0.10;;;;;;;-145.06;100.00;54520.22;10371274;28;20029;-69
2023/12/17 15:54:50;;;;;;;0.10;0.10;;;;;;;-145.06;100.00;54534.41;10374518;28;20037;-69
2023/12/17 15:59:50;;;;;;;0.10;0.10;;;;;;;-145.06;100.00;54532.38;10388001;28;20043;-69
2023/12/17 16:04:51;;;;;;;0.10;0.10;;;;;;;-145.06;100.00;54542.50;10387094;28;20084;-69
2023/12/17 16:09:51;;;;;;;0.10;0.10;;;;;;;-145.06;100.00;54524.28;10370927;28;20034;-69
2023/12/17 16:14:53;;;;;;;0.10;0.10;;;;;;;-145.06;100.00;54542.50;10389307;28;20390;-69
2023/12/17 16:19:54;;;;;;;0.00;0.00;;;;;;;-145.06;100.00;54532.38;10389134;28;20402;-69
2023/12/17 16:24:54;;;;;;;0.03;0.03;;;;;;;-145.06;100.00;54536.44;10373795;28;20021;-69
2023/12/17 16:29:55;;;;;;;0.10;0.10;;;;;;;-145.06;100.00;54540.50;10377281;28;20471;-70
2023/12/17 16:34:56;;;;;;;0.00;0.00;;;;;;;-145.06;100.00;54552.66;10370579;28;20031;-70
2023/12/17 16:39:59;;;;;;;0.00;0.00;;;;;;;-145.06;100.00;54550.63;10390890;28;20418;-70
2023/12/17 16:45:00;;;;;;;0.00;0.00;;;;;;;-145.06;100.00;54560.75;10393965;28;20413;-70
2023/12/17 16:50:03;;;;;;;0.10;0.10;;;;;;;-145.06;100.00;54572.91;10411541;22;20038;-70
2023/12/17 16:55:03;;;;;;;0.00;0.00;;;;;;;-145.06;100.00;54568.84;10396113;28;20034;-69
2023/12/17 17:00:04;;;;;;;0.00;0.00;;;;;;;-145.06;100.00;54564.78;10378739;28;20022;-70
2023/12/17 17:05:05;;;;;;;0.00;0.00;;;;;;;-145.06;100.00;54578.97;10379070;28;20033;-70
2023/12/17 17:10:06;;;;;;;0.10;0.10;;;;;;;-145.06;100.00;54581.00;10380512;28;20013;-70
2023/12/17 17:15:08;;;;;;;0.10;0.10;;;;;;;-145.06;100.00;54599.22;10357493;28;20034;-70
2023/12/17 17:20:10;;;;;;;0.10;0.10;;;;;;;-145.06;100.00;54599.22;10381380;28;20017;-70
2023/12/17 17:25:10;;;;;;;0.10;0.10;;;;;;;-145.06;100.00;54585.06;10382603;28;20033;-69
2023/12/17 17:30:12;;;;;;;0.10;0.10;;;;;;;-145.06;100.00;54574.91;10377788;28;20028;-69
2023/12/17 17:35:12;;;;;;;0.10;0.10;;;;;;;-145.06;100.00;54621.50;10377927;28;20040;-70
2023/12/17 17:40:13;;;;;;;0.00;0.00;;;;;;;-145.06;100.00;54625.56;10377066;28;20613;-71
2023/12/17 17:45:13;;;;;;;0.00;0.00;;;;;;;-145.06;100.00;54633.66;10359961;28;20498;-69
2023/12/17 17:50:14;;;;;;;0.00;0.00;;;;;;;-145.06;100.00;54611.38;10377527;28;20075;-70
2023/12/17 17:55:14;;;;;;;0.10;0.10;;;;;;;-145.06;100.00;54625.56;10354967;28;20287;-70
2023/12/17 18:00:15;;;;;;;0.10;0.10;;;;;;;-145.06;100.00;54609.34;10378528;28;20248;-69
2023/12/17 18:05:18;;;;;;;0.10;0.10;;;;;;;-145.06;100.00;54645.81;10376157;28;20037;-69
2023/12/17 18:10:19;;;;;;;0.10;0.10;;;;;;;-145.06;100.00;54625.56;10375055;28;20041;-69
2023/12/17 18:15:19;;;;;;;0.10;0.10;;;;;;;-145.06;100.00;54635.69;10380309;28;20021;-69
2023/12/17 18:20:20;;;;;;;0.10;0.10;;;;;;;-145.06;100.00;54611.38;10377719;28;20026;-69
2023/12/17 18:25:21;;;;;;;0.10;0.10;;;;;;;-145.06;100.00;54625.56;10380901;28;20029;-69
2023/12/17 18:30:21;;;;;;;0.10;0.10;;;;;;;-145.06;100.00;54601.25;10374593;28;20577;-70
2023/12/17 18:35:21;;;;;;;0.10;0.10;;;;;;;-145.06;100.00;54639.75;10376581;28;20416;-69
2023/12/17 18:40:22;;;;;;;0.00;0.00;;;;;;;-145.06;100.00;54613.41;10355017;28;21026;-70
2023/12/17 18:45:22;;;;;;;0.10;0.10;;;;;;;-145.06;100.00;54568.84;10373596;28;20505;-70
2023/12/17 18:50:22;;;;;;;0.00;0.00;;;;;;;-145.06;100.00;54595.19;10370109;28;20021;-70
2023/12/17 18:55:22;;;;;;;0.00;0.00;;;;;;;-145.06;100.00;54585.06;10377430;28;20052;-70
2023/12/17 19:00:23;;;;;;;0.10;0.10;;;;;;;-145.06;100.00;54560.75;10374925;28;20021;-70
2023/12/17 19:05:23;;;;;;;0.03;0.03;;;;;;;-145.06;100.00;54611.38;10375143;28;20043;-69
2023/12/17 19:10:24;;;;;;;0.00;0.00;;;;;;;-145.06;100.00;54572.91;10371547;28;20028;-69
2023/12/17 19:15:24;;;;;;;0.10;0.10;;;;;;;-145.06;100.00;54574.91;10352735;28;20500;-69
2023/12/17 19:20:25;;;;;;;0.00;0.00;;;;;;;-145.06;100.00;54583.03;10356190;28;20014;-69
2023/12/17 19:25:25;;;;;;;0.00;0.00;;;;;;;-145.06;100.00;54589.09;10357331;28;20033;-70
2023/12/17 19:30:25;;;;;;;0.00;0.00;;;;;;;-145.06;100.00;54572.91;10370323;28;20017;-70
2023/12/17 19:35:26;;;;;;;0.10;0.10;;;;;;;-145.06;100.00;54554.66;10372151;28;20026;-70
2023/12/17 19:40:26;;;;;;;0.00;0.00;;;;;;;-145.06;100.00;54576.94;10372852;28;20030;-69
2023/12/17 19:45:26;;;;;;;0.00;0.00;;;;;;;-145.06;100.00;54562.78;10379450;28;20391;-70
2023/12/17 19:50:28;;;;;;;0.00;0.00;;;;;;;-145.06;100.00;54564.78;10369322;28;20280;-69
2023/12/17 19:55:29;;;;;;;0.10;0.10;;;;;;;-145.06;100.00;54585.06;10374404;28;20100;-70
2023/12/17 20:00:30;;;;;;;0.10;0.10;;;;;;;-145.06;100.00;54550.63;10375657;28;20018;-70
2023/12/17 20:05:30;;;;;;;0.08;0.08;;;;;;;-145.06;100.00;54538.47;10368246;28;20264;-69
2023/12/17 20:10:30;;;;;;;0.08;0.08;;;;;;;-145.06;100.00;54562.78;10379956;28;20021;-69
2023/12/17 20:15:31;;;;;;;0.10;0.10;;;;;;;-145.06;100.00;54585.06;10376603;28;20052;-69
2023/12/17 20:20:33;;;;;;;0.10;0.10;;;;;;;-145.06;100.00;54564.78;10381389;28;20501;-70
2023/12/17 20:25:33;;;;;;;0.00;0.00;;;;;;;-145.06;100.00;54560.75;10363838;28;20104;-70
2023/12/17 20:30:35;;;;;;;0.10;0.10;;;;;;;-145.06;100.00;54530.34;10382630;28;20032;-70
2023/12/17 20:35:40;;;;;;;0.10;0.10;;;;;;;-145.06;100.00;54605.31;10379592;28;20030;-69
2023/12/17 20:40:44;;;;;;;;;;;;;;;-145.06;100.00;54599.22;10372210;28;20010;-71
2023/12/17 20:45:44;;;;;;;0.05;0.05;;;;;;;-145.06;100.00;54560.75;10372924;28;19909;-70
2023/12/17 20:50:44;;;;;;;0.10;0.10;;;;;;;-145.06;100.00;54568.84;10373407;28;20022;-71
2023/12/17 20:55:44;;;;;;;0.10;0.10;;;;;;;-145.06;100.00;54556.69;10378854;28;20041;-70
2023/12/17 21:00:45;;;;;;;0.10;0.10;;;;;;;-145.06;100.00;54566.81;10382486;28;20014;-70
2023/12/17 21:05:45;;;;;;;0.10;0.10;;;;;;;-145.06;100.00;54568.84;10370566;28;20395;-69
2023/12/17 21:10:46;;;;;;;0.05;0.05;;;;;;;-145.06;100.00;54558.72;10379022;28;20462;-72
2023/12/17 21:15:46;;;;;;;0.10;0.10;;;;;;;-145.06;100.00;54601.25;10363701;28;20026;-70
2023/12/17 21:20:46;;;;;;;0.10;0.10;;;;;;;-145.06;100.00;54572.91;10377010;28;20018;-71
2023/12/17 21:25:47;;;;;;;0.00;0.00;;;;;;;-145.06;100.00;54560.75;10361633;28;20032;-70
2023/12/17 21:30:47;;;;;;;0.10;0.10;;;;;;;-145.06;100.00;54576.94;10379788;28;20014;-70
2023/12/17 21:35:47;;;;;;;0.10;0.10;;;;;;;-145.06;100.00;54566.81;10364938;28;20272;-70
2023/12/17 21:40:47;;;;;;;0.10;0.10;;;;;;;-145.06;100.00;54591.13;10376244;28;20071;-70
2023/12/17 21:45:48;;;;;;;0.08;0.08;;;;;;;-145.06;100.00;54572.91;10375813;28;20018;-70
2023/12/17 21:50:48;;;;;;;0.00;0.00;;;;;;;-145.06;100.00;54554.66;10371762;28;20022;-69
2023/12/17 21:55:48;;;;;;;0.10;0.10;;;;;;;-145.06;100.00;54599.22;10373277;28;20357;-70
2023/12/17 22:00:49;;;;;;;0.10;0.10;;;;;;;-145.06;100.00;54595.19;10373613;28;20730;-70
2023/12/17 22:05:49;;;;;;;0.10;0.10;;;;;;;-145.06;100.00;54607.34;10372856;28;20022;-70
2023/12/17 22:10:49;;;;;;;0.10;0.10;;;;;;;-145.06;100.00;54589.09;10374257;28;20061;-70
2023/12/17 22:15:50;;;;;;;0.10;0.10;;;;;;;-145.06;100.00;54562.78;10372182;28;20029;-69
2023/12/17 22:20:50;;;;;;;0.10;0.10;;;;;;;-145.06;100.00;54599.22;10371468;28;20033;-70
2023/12/17 22:25:51;;;;;;;0.00;0.00;;;;;;;-145.06;100.00;54587.06;10372506;28;20018;-70
2023/12/17 22:30:51;;;;;;;0.10;0.10;;;;;;;-145.06;100.00;54583.03;10371950;28;20100;-70